Time;durP1;ratioP1;P1;durP2;ratioP2;P2;SDS_P1;SDS_P2;PMS_P1;PMS_P2;Temp;Humidity;BMP_temperature;BMP_pressure;BME280_temperature;BME280_humidity;BME280_pressure;Samples;Min_cycle;Max_cycle;Signal;HPM_P1;HPM_P2
2023/06/22 00:00:55;;;;;;;6.95;3.92;;;20.30;99.90;;;;;;5038256;28;20037;-70
2023/06/22 00:03:24;;;;;;;5.03;3.50;;;20.40;99.90;;;;;;5036982;28;20021;-70
2023/06/22 00:05:50;;;;;;;6.82;3.92;;;20.30;99.90;;;;;;5037528;28;20021;-70
2023/06/22 00:08:16;;;;;;;7.38;4.03;;;20.40;99.90;;;;;;5038303;28;20029;-70
2023/06/22 00:10:43;;;;;;;8.55;4.60;;;20.40;99.90;;;;;;5036712;28;20022;-70
2023/06/22 00:13:09;;;;;;;14.68;5.20;;;20.40;99.90;;;;;;5038180;28;20482;-70
2023/06/22 00:15:36;;;;;;;11.77;4.55;;;20.40;99.90;;;;;;5036690;28;20582;-70
2023/06/22 00:18:02;;;;;;;8.80;4.60;;;20.40;99.90;;;;;;5038231;28;20026;-70
2023/06/22 00:20:28;;;;;;;11.57;5.10;;;20.40;99.90;;;;;;5037550;28;20549;-70
2023/06/22 00:22:55;;;;;;;10.73;5.32;;;20.40;99.90;;;;;;5038028;28;20029;-70
2023/06/22 00:25:21;;;;;;;12.35;6.13;;;20.40;99.90;;;;;;5037736;28;20030;-70
2023/06/22 00:27:48;;;;;;;13.18;5.78;;;20.40;99.90;;;;;;5037978;28;20036;-71
2023/06/22 00:30:15;;;;;;;11.55;5.65;;;20.50;99.90;;;;;;5036479;28;20026;-70
2023/06/22 00:32:40;;;;;;;12.15;6.75;;;20.50;99.90;;;;;;5038014;28;20032;-70
2023/06/22 00:35:07;;;;;;;13.43;6.15;;;20.50;99.90;;;;;;5036239;28;20037;-70
2023/06/22 00:37:33;;;;;;;9.60;5.45;;;20.50;99.90;;;;;;5037746;28;20079;-69
2023/06/22 00:39:58;;;;;;;13.55;5.53;;;20.50;99.90;;;;;;5037682;28;20025;-70
2023/06/22 00:42:24;;;;;;;10.55;4.88;;;20.50;99.90;;;;;;5037675;28;20025;-70
2023/06/22 00:44:50;;;;;;;9.48;4.45;;;20.50;99.90;;;;;;5037855;28;20032;-70
2023/06/22 00:47:18;;;;;;;7.47;4.05;;;20.50;99.90;;;;;;5036316;28;20454;-70
2023/06/22 00:49:44;;;;;;;5.90;4.50;;;20.50;99.90;;;;;;5037468;28;20367;-70
2023/06/22 00:52:13;;;;;;;9.43;4.80;;;20.50;99.90;;;;;;5037564;28;20021;-70
2023/06/22 00:54:46;;;;;;;8.10;3.80;;;20.50;99.90;;;;;;5037751;28;20033;-70
2023/06/22 00:57:18;;;;;;;8.88;4.28;;;20.50;99.90;;;;;;5035979;28;20022;-70
2023/06/22 00:59:44;;;;;;;11.63;5.22;;;20.50;99.90;;;;;;5037432;28;20029;-70
2023/06/22 01:02:10;;;;;;;7.00;4.18;;;20.50;99.90;;;;;;5037319;28;20021;-70
2023/06/22 01:04:38;;;;;;;6.40;4.28;;;20.50;99.90;;;;;;5037150;28;20080;-70
2023/06/22 01:07:28;;;;;;;8.00;4.15;;;20.50;99.90;;;;;;5037281;28;20022;-70
2023/06/22 01:09:59;;;;;;;;;;;20.50;99.90;;;;;;5033355;28;20034;-70
2023/06/22 01:12:27;;;;;;;;;;;20.40;99.90;;;;;;5037827;28;20020;-69
2023/06/22 01:15:04;;;;;;;6.47;3.63;;;20.40;99.90;;;;;;5036984;28;19904;-69
2023/06/22 01:17:32;;;;;;;6.07;4.65;;;20.50;99.90;;;;;;5037297;28;20028;-70
2023/06/22 01:19:59;;;;;;;6.63;4.03;;;20.40;99.90;;;;;;5036589;28;20050;-70
2023/06/22 01:22:30;;;;;;;9.07;3.88;;;20.40;99.90;;;;;;5037251;28;20105;-70
2023/06/22 01:25:19;;;;;;;4.55;3.40;;;20.40;99.90;;;;;;5037062;28;20485;-69
2023/06/22 01:28:00;;;;;;;7.90;3.55;;;20.40;99.90;;;;;;5037218;28;20022;-70
2023/06/22 01:30:29;;;;;;;4.90;2.65;;;20.30;99.90;;;;;;5037278;28;20484;-70
2023/06/22 01:32:58;;;;;;;6.50;2.40;;;20.30;99.90;;;;;;5035716;28;20029;-70
2023/06/22 01:35:24;;;;;;;4.55;2.08;;;20.20;99.90;;;;;;5036828;28;20033;-70
2023/06/22 01:37:50;;;;;;;3.97;1.83;;;20.10;99.90;;;;;;5036912;28;20032;-71
2023/06/22 01:40:18;;;;;;;6.32;1.80;;;19.90;99.90;;;;;;5036906;28;20490;-70
2023/06/22 01:42:44;;;;;;;4.75;2.30;;;19.90;99.90;;;;;;5036922;28;20064;-70
2023/06/22 01:45:12;;;;;;;3.45;1.60;;;19.80;99.90;;;;;;5037048;28;20056;-70
2023/06/22 01:47:38;;;;;;;5.32;2.28;;;19.70;99.90;;;;;;5036908;28;20366;-70
2023/06/22 01:50:05;;;;;;;5.05;2.15;;;19.60;99.90;;;;;;5036782;28;20033;-70
2023/06/22 01:52:33;;;;;;;5.90;2.00;;;19.60;99.90;;;;;;5035522;28;20026;-70
2023/06/22 01:54:59;;;;;;;3.60;2.10;;;19.60;99.90;;;;;;5036939;28;20116;-70
2023/06/22 01:57:26;;;;;;;5.90;2.28;;;19.60;99.90;;;;;;5035414;28;20068;-70
2023/06/22 02:00:11;;;;;;;4.50;2.00;;;19.60;99.90;;;;;;5036805;28;20033;-70
2023/06/22 02:02:45;;;;;;;3.33;2.05;;;19.60;99.90;;;;;;5036646;28;20020;-70
2023/06/22 02:05:15;;;;;;;6.25;2.22;;;19.60;99.90;;;;;;5035142;28;20397;-70
2023/06/22 02:07:57;;;;;;;9.13;2.20;;;19.50;99.90;;;;;;5035665;28;20052;-70
2023/06/22 02:10:24;;;;;;;8.93;2.13;;;19.50;99.90;;;;;;5036540;28;20056;-70
2023/06/22 02:12:52;;;;;;;5.25;1.90;;;19.50;99.90;;;;;;5036710;28;20029;-70
2023/06/22 02:15:18;;;;;;;6.45;1.77;;;19.50;99.90;;;;;;5036590;28;20494;-70
2023/06/22 02:17:44;;;;;;;4.55;2.05;;;19.50;99.90;;;;;;5036931;28;20053;-69
2023/06/22 02:20:13;;;;;;;5.47;1.73;;;19.50;99.90;;;;;;5036138;28;20046;-70
2023/06/22 02:22:39;;;;;;;5.80;1.75;;;19.50;99.90;;;;;;5035451;28;20029;-70
2023/06/22 02:25:05;;;;;;;6.10;1.85;;;19.40;99.90;;;;;;5036380;28;20021;-70
2023/06/22 02:27:31;;;;;;;4.85;1.95;;;19.40;99.90;;;;;;5037376;28;20071;-70
2023/06/22 02:29:57;;;;;;;2.22;1.42;;;19.30;99.90;;;;;;5040065;28;20097;-71
2023/06/22 02:32:23;;;;;;;8.00;1.88;;;19.30;99.90;;;;;;5038896;28;20033;-70
2023/06/22 02:34:48;;;;;;;2.80;1.90;;;19.30;99.90;;;;;;5038503;28;20032;-70
2023/06/22 02:37:14;;;;;;;5.53;1.52;;;19.20;99.90;;;;;;5040185;28;20025;-70
2023/06/22 02:39:40;;;;;;;5.05;2.20;;;19.20;99.90;;;;;;5039821;28;20032;-70
2023/06/22 02:42:06;;;;;;;3.78;1.88;;;19.20;99.90;;;;;;5039919;28;20045;-70
2023/06/22 02:44:32;;;;;;;9.68;1.67;;;19.20;99.90;;;;;;5039890;28;20547;-70
2023/06/22 02:46:58;;;;;;;4.55;1.52;;;19.10;99.90;;;;;;5039942;28;20025;-70
2023/06/22 02:49:24;;;;;;;3.88;1.60;;;19.10;99.90;;;;;;5039716;28;20022;-70
2023/06/22 02:51:50;;;;;;;3.35;1.50;;;19.10;99.90;;;;;;5039840;28;20025;-70
2023/06/22 02:54:16;;;;;;;10.18;2.10;;;19.10;99.90;;;;;;5039696;28;20040;-70
2023/06/22 02:56:43;;;;;;;3.38;1.90;;;19.00;99.90;;;;;;5038390;28;20100;-70
2023/06/22 02:59:10;;;;;;;6.68;1.98;;;19.10;99.90;;;;;;5038201;28;20029;-70
2023/06/22 03:01:42;;;;;;;7.22;2.08;;;19.10;99.90;;;;;;5039215;28;20021;-70
2023/06/22 03:04:09;;;;;;;11.43;2.03;;;19.00;99.90;;;;;;5039340;28;20393;-70
2023/06/22 03:06:35;;;;;;;4.50;1.75;;;19.00;99.90;;;;;;5038732;28;20022;-70
2023/06/22 03:09:03;;;;;;;6.07;1.90;;;19.10;99.90;;;;;;5037867;28;20034;-70
2023/06/22 03:11:33;;;;;;;6.65;1.95;;;19.00;99.90;;;;;;5039319;28;20032;-70
2023/06/22 03:13:59;;;;;;;5.10;2.17;;;19.00;99.90;;;;;;5039158;28;20029;-70
2023/06/22 03:16:25;;;;;;;8.18;1.85;;;19.00;99.90;;;;;;5039210;28;20478;-70
2023/06/22 03:18:51;;;;;;;3.83;1.92;;;19.00;99.90;;;;;;5039606;28;20385;-70
2023/06/22 03:21:17;;;;;;;4.97;2.33;;;19.00;99.90;;;;;;5038658;28;20045;-70
2023/06/22 03:23:43;;;;;;;5.65;1.92;;;18.90;99.90;;;;;;5038009;28;20025;-70
2023/06/22 03:26:10;;;;;;;6.55;2.38;;;18.90;99.90;;;;;;5038978;28;20056;-70
2023/06/22 03:28:35;;;;;;;4.78;2.40;;;18.90;99.90;;;;;;5039265;28;20024;-69
2023/06/22 03:31:01;;;;;;;9.23;2.00;;;18.90;99.90;;;;;;5038929;28;20061;-70
2023/06/22 03:33:27;;;;;;;16.60;3.10;;;18.80;99.90;;;;;;5038988;28;20029;-70
2023/06/22 03:35:53;;;;;;;6.35;2.55;;;18.80;99.90;;;;;;5038784;28;20022;-70
2023/06/22 03:38:19;;;;;;;7.57;2.58;;;18.90;99.90;;;;;;5038971;28;20532;-70
2023/06/22 03:40:45;;;;;;;6.95;2.22;;;18.80;99.90;;;;;;5038541;28;20029;-70
2023/06/22 03:43:10;;;;;;;5.68;2.85;;;18.80;99.90;;;;;;5038960;28;20022;-69
2023/06/22 03:45:37;;;;;;;3.72;2.65;;;18.80;99.90;;;;;;5038986;28;20048;-70
2023/06/22 03:48:02;;;;;;;6.40;2.80;;;18.80;99.90;;;;;;5038802;28;20044;-71
2023/06/22 03:50:29;;;;;;;5.28;2.92;;;18.80;99.90;;;;;;5038337;28;20025;-70
2023/06/22 03:52:55;;;;;;;5.78;3.25;;;18.80;99.90;;;;;;5038707;28;20105;-71
2023/06/22 03:55:21;;;;;;;4.60;2.80;;;18.80;99.90;;;;;;5038428;28;20056;-70
2023/06/22 03:57:46;;;;;;;6.78;2.90;;;18.80;99.90;;;;;;5037523;28;20044;-70
2023/06/22 04:00:13;;;;;;;4.47;3.47;;;18.80;99.90;;;;;;5038552;28;20113;-70
2023/06/22 04:02:38;;;;;;;3.65;2.70;;;18.80;99.90;;;;;;5038289;28;20072;-70
2023/06/22 04:05:05;;;;;;;4.18;3.50;;;18.80;99.90;;;;;;5038377;28;20421;-70
2023/06/22 04:07:30;;;;;;;11.30;3.72;;;18.80;99.90;;;;;;5038426;28;20087;-70
2023/06/22 04:09:56;;;;;;;9.82;3.10;;;18.80;99.90;;;;;;5036990;28;20402;-70
2023/06/22 04:12:22;;;;;;;9.07;4.18;;;18.80;99.90;;;;;;5038139;28;20505;-69
2023/06/22 04:14:47;;;;;;;5.75;3.35;;;18.80;99.90;;;;;;5038221;28;20075;-70
2023/06/22 04:17:14;;;;;;;9.00;3.15;;;18.80;99.90;;;;;;5036855;28;20497;-70
2023/06/22 04:19:40;;;;;;;5.72;3.80;;;18.80;99.90;;;;;;5037680;28;20044;-70
2023/06/22 04:22:07;;;;;;;7.70;3.80;;;18.80;99.90;;;;;;5038029;28;20080;-70
2023/06/22 04:24:33;;;;;;;13.23;3.95;;;18.90;99.90;;;;;;5038002;28;20014;-70
2023/06/22 04:27:00;;;;;;;9.82;3.30;;;18.90;99.90;;;;;;5037928;28;20021;-70
2023/06/22 04:29:28;;;;;;;7.97;4.10;;;19.00;99.90;;;;;;5037907;28;20028;-70
2023/06/22 04:31:55;;;;;;;7.25;3.80;;;19.00;99.90;;;;;;5038042;28;20022;-69
2023/06/22 04:34:21;;;;;;;6.93;3.97;;;19.10;99.90;;;;;;5037823;28;20152;-70
2023/06/22 04:36:47;;;;;;;10.88;4.40;;;19.10;99.90;;;;;;5037679;28;20057;-70
2023/06/22 04:39:12;;;;;;;10.23;3.83;;;19.10;99.90;;;;;;5037669;28;20049;-70
2023/06/22 04:41:42;;;;;;;7.93;3.50;;;19.10;99.90;;;;;;5037544;28;20044;-70
2023/06/22 04:44:13;;;;;;;9.27;4.22;;;19.10;99.90;;;;;;5036323;28;20075;-70
2023/06/22 04:46:39;;;;;;;13.10;3.95;;;19.10;99.90;;;;;;5038037;28;20029;-70
2023/06/22 04:49:12;;;;;;;7.47;3.90;;;19.10;99.90;;;;;;5037652;28;20032;-70
2023/06/22 04:51:40;;;;;;;13.55;4.30;;;19.10;99.90;;;;;;5037125;28;20033;-70
2023/06/22 04:54:07;;;;;;;13.35;4.32;;;19.10;99.90;;;;;;5037556;28;20047;-70
2023/06/22 04:56:33;;;;;;;14.68;4.13;;;19.20;99.90;;;;;;5037549;28;20026;-71
2023/06/22 04:58:59;;;;;;;10.63;4.22;;;19.30;99.90;;;;;;5037363;28;20029;-71
2023/06/22 05:01:25;;;;;;;12.95;5.25;;;19.20;99.90;;;;;;5037690;28;20033;-70
2023/06/22 05:03:55;;;;;;;5.00;3.85;;;19.20;99.90;;;;;;5037640;28;20442;-71
2023/06/22 05:06:24;;;;;;;9.67;4.57;;;19.20;99.90;;;;;;5037927;28;20029;-70
2023/06/22 05:08:52;;;;;;;9.15;4.95;;;19.20;99.90;;;;;;5036142;28;20699;-71
2023/06/22 05:11:18;;;;;;;11.40;5.28;;;19.20;99.90;;;;;;5037568;28;20037;-70
2023/06/22 05:13:44;;;;;;;9.43;5.43;;;19.20;99.90;;;;;;5035922;28;20034;-70
2023/06/22 05:16:09;;;;;;;10.70;5.97;;;19.20;99.90;;;;;;5036922;28;20032;-71
2023/06/22 05:18:36;;;;;;;9.13;5.50;;;19.20;99.90;;;;;;5037879;28;20071;-70
2023/06/22 05:21:03;;;;;;;14.43;5.75;;;19.30;99.90;;;;;;5035285;28;20556;-70
2023/06/22 05:23:28;;;;;;;14.45;5.85;;;19.30;99.90;;;;;;5035776;28;20032;-71
2023/06/22 05:25:57;;;;;;;10.15;5.95;;;19.30;99.90;;;;;;5037580;28;20017;-71
2023/06/22 05:28:24;;;;;;;11.15;5.18;;;19.40;99.90;;;;;;5037405;28;20017;-71
2023/06/22 05:30:50;;;;;;;8.25;5.88;;;19.40;99.90;;;;;;5035671;28;20386;-70
2023/06/22 05:33:16;;;;;;;7.90;5.53;;;19.50;99.90;;;;;;5039235;28;20544;-70
2023/06/22 05:35:41;;;;;;;11.40;7.22;;;19.50;99.90;;;;;;5034085;28;20122;-71
2023/06/22 05:38:07;;;;;;;10.15;6.03;;;19.60;99.90;;;;;;5037437;28;20028;-71
2023/06/22 05:40:33;;;;;;;11.35;6.30;;;19.60;99.90;;;;;;5037028;28;20030;-71
2023/06/22 05:43:01;;;;;;;7.90;5.68;;;19.60;99.90;;;;;;5039145;28;20067;-71
2023/06/22 05:45:27;;;;;;;11.40;6.50;;;19.50;99.90;;;;;;5036879;28;20014;-71
2023/06/22 05:47:52;;;;;;;10.88;5.60;;;19.60;99.90;;;;;;5042830;28;20076;-71
2023/06/22 05:50:18;;;;;;;11.18;5.97;;;19.60;99.90;;;;;;5035712;28;20022;-72
2023/06/22 05:52:44;;;;;;;13.05;6.47;;;19.60;99.90;;;;;;5036393;28;20029;-71
2023/06/22 05:55:09;;;;;;;9.70;6.28;;;19.60;99.90;;;;;;5036270;28;20029;-71
2023/06/22 05:57:35;;;;;;;8.63;5.78;;;19.70;99.90;;;;;;5035406;28;20112;-71
2023/06/22 06:00:01;;;;;;;10.45;6.35;;;19.70;99.90;;;;;;5036417;28;20025;-70
2023/06/22 06:02:26;;;;;;;8.60;5.35;;;19.70;99.90;;;;;;5036537;28;20417;-70
2023/06/22 06:04:52;;;;;;;14.60;5.70;;;19.80;99.90;;;;;;5039601;28;20018;-71
2023/06/22 06:07:18;;;;;;;14.07;6.65;;;19.80;99.90;;;;;;5039439;28;20026;-70
2023/06/22 06:09:44;;;;;;;8.05;5.70;;;19.80;99.90;;;;;;5030434;28;20029;-70
2023/06/22 06:12:09;;;;;;;13.15;6.85;;;19.80;99.90;;;;;;5036226;28;20452;-70
2023/06/22 06:14:35;;;;;;;8.27;6.32;;;19.80;99.90;;;;;;5039611;28;20032;-71
2023/06/22 06:17:01;;;;;;;11.48;6.53;;;19.80;99.90;;;;;;5038232;28;20025;-71
2023/06/22 06:19:26;;;;;;;9.65;6.10;;;19.80;99.90;;;;;;5038495;28;20155;-70
2023/06/22 06:21:52;;;;;;;9.30;6.20;;;19.80;99.90;;;;;;5039167;28;20029;-70
2023/06/22 06:24:18;;;;;;;11.70;6.20;;;19.80;99.90;;;;;;5039805;28;20044;-70
2023/06/22 06:26:43;;;;;;;14.23;7.40;;;20.00;99.90;;;;;;5037751;28;20745;-70
2023/06/22 06:29:09;;;;;;;9.23;6.80;;;20.00;99.90;;;;;;5038445;28;20009;-70
2023/06/22 06:31:34;;;;;;;12.82;6.32;;;20.20;99.90;;;;;;5039418;28;20025;-70
2023/06/22 06:34:00;;;;;;;12.65;6.50;;;20.40;99.90;;;;;;5039205;28;20397;-70
2023/06/22 06:36:26;;;;;;;13.07;6.75;;;20.40;99.90;;;;;;5031870;28;20032;-70
2023/06/22 06:38:52;;;;;;;9.05;6.20;;;20.60;99.90;;;;;;5038349;28;20068;-70
2023/06/22 06:41:19;;;;;;;8.02;6.75;;;20.70;99.90;;;;;;5039108;28;20030;-70
2023/06/22 06:43:44;;;;;;;7.78;5.32;;;20.60;99.90;;;;;;5037817;28;20398;-70
2023/06/22 06:46:10;;;;;;;12.05;5.88;;;20.60;99.90;;;;;;5037125;28;20014;-70
2023/06/22 06:48:37;;;;;;;8.57;5.97;;;20.60;99.90;;;;;;5038528;28;20083;-70
2023/06/22 06:51:02;;;;;;;10.48;5.75;;;20.50;99.90;;;;;;5038689;28;20088;-70
2023/06/22 06:53:28;;;;;;;10.05;5.57;;;20.60;99.90;;;;;;5037730;28;20507;-70
2023/06/22 06:55:54;;;;;;;6.22;5.10;;;20.70;99.90;;;;;;5038794;28;20021;-70
2023/06/22 06:58:20;;;;;;;8.88;5.57;;;20.60;99.90;;;;;;5038255;28;20036;-70
2023/06/22 07:00:46;;;;;;;8.75;5.60;;;20.70;99.90;;;;;;5038764;28;20021;-70
2023/06/22 07:03:11;;;;;;;10.55;5.55;;;20.60;99.90;;;;;;5036959;28;20030;-70
2023/06/22 07:05:37;;;;;;;14.45;5.00;;;20.70;99.90;;;;;;5038362;28;20017;-70
2023/06/22 07:08:03;;;;;;;18.85;4.95;;;20.80;99.90;;;;;;5037203;28;20076;-70
2023/06/22 07:10:29;;;;;;;15.77;5.28;;;20.80;99.90;;;;;;5035895;28;20044;-70
2023/06/22 07:12:55;;;;;;;6.95;4.47;;;20.90;99.90;;;;;;5038502;28;20644;-70
2023/06/22 07:15:21;;;;;;;6.43;4.28;;;21.00;99.90;;;;;;5038852;28;20077;-70
2023/06/22 07:17:46;;;;;;;6.28;4.47;;;21.20;99.90;;;;;;5037276;28;20034;-70
2023/06/22 07:20:12;;;;;;;8.07;4.68;;;21.20;99.90;;;;;;5038085;28;20078;-70
2023/06/22 07:22:39;;;;;;;9.75;4.38;;;21.30;99.90;;;;;;5037200;28;20055;-70
2023/06/22 07:25:09;;;;;;;12.20;4.55;;;21.40;99.90;;;;;;5038518;28;20017;-70
2023/06/22 07:27:45;;;;;;;6.28;3.97;;;21.50;99.90;;;;;;5037694;28;20029;-69
2023/06/22 07:30:12;;;;;;;16.25;5.40;;;21.80;99.90;;;;;;5038425;28;20021;-69
2023/06/22 07:32:38;;;;;;;11.95;4.18;;;22.00;99.90;;;;;;5038219;28;20033;-70
2023/06/22 07:35:04;;;;;;;8.57;4.28;;;22.00;99.90;;;;;;5036972;28;20032;-70
2023/06/22 07:37:30;;;;;;;10.57;3.95;;;22.10;99.90;;;;;;5037300;28;20117;-70
2023/06/22 07:39:59;;;;;;;5.85;3.38;;;22.20;99.90;;;;;;5037949;28;20053;-70
2023/06/22 07:42:26;;;;;;;5.93;3.80;;;22.20;99.90;;;;;;5038379;28;20018;-70
2023/06/22 07:44:51;;;;;;;6.55;3.30;;;22.20;99.90;;;;;;5041490;28;20048;-69
2023/06/22 07:47:20;;;;;;;7.57;3.45;;;22.20;99.90;;;;;;5035856;28;20018;-70
2023/06/22 07:49:46;;;;;;;5.65;3.42;;;22.10;99.90;;;;;;5037754;28;20021;-70
2023/06/22 07:52:12;;;;;;;4.55;2.95;;;22.00;99.90;;;;;;5038605;28;20024;-69
2023/06/22 07:54:38;;;;;;;7.20;3.67;;;21.90;99.90;;;;;;5046995;28;20024;-70
2023/06/22 07:57:04;;;;;;;5.22;3.22;;;21.80;99.90;;;;;;5036024;28;20025;-70
2023/06/22 07:59:30;;;;;;;4.25;3.25;;;21.70;99.90;;;;;;5036503;28;20406;-70
2023/06/22 08:01:56;;;;;;;6.00;2.88;;;21.70;99.90;;;;;;5037254;28;20060;-69
2023/06/22 08:04:21;;;;;;;3.97;2.75;;;21.70;99.90;;;;;;5040482;28;20025;-69
2023/06/22 08:06:47;;;;;;;3.97;2.53;;;21.70;99.90;;;;;;5037762;28;20022;-70
2023/06/22 08:09:12;;;;;;;6.10;2.45;;;21.80;99.90;;;;;;5035431;28;20188;-69
2023/06/22 08:11:38;;;;;;;4.22;2.55;;;21.80;99.90;;;;;;5037431;28;20026;-69
2023/06/22 08:14:04;;;;;;;3.55;2.65;;;21.80;99.90;;;;;;5037215;28;20025;-69
2023/06/22 08:16:29;;;;;;;4.32;2.03;;;21.80;99.90;;;;;;5037576;28;20037;-69
2023/06/22 08:18:55;;;;;;;5.72;2.42;;;21.80;99.90;;;;;;5036497;28;20034;-71
2023/06/22 08:21:21;;;;;;;4.10;2.30;;;21.80;99.90;;;;;;5036791;28;20045;-70
2023/06/22 08:23:48;;;;;;;3.85;2.28;;;21.80;99.90;;;;;;5037098;28;20067;-69
2023/06/22 08:26:14;;;;;;;2.85;1.98;;;22.10;99.90;;;;;;5036611;28;20472;-69
2023/06/22 08:28:40;;;;;;;3.35;2.03;;;22.20;99.90;;;;;;5034950;28;20029;-70
2023/06/22 08:31:06;;;;;;;3.35;2.03;;;22.40;99.90;;;;;;5037404;28;20030;-69
2023/06/22 08:33:31;;;;;;;6.43;2.20;;;22.50;99.90;;;;;;5039952;28;20025;-69
2023/06/22 08:35:58;;;;;;;3.42;2.15;;;22.50;99.90;;;;;;5027663;28;20101;-69
2023/06/22 08:38:24;;;;;;;4.03;2.78;;;22.50;99.90;;;;;;5036250;28;20473;-70
2023/06/22 08:40:50;;;;;;;5.15;2.60;;;22.40;99.90;;;;;;5035631;28;20038;-69
2023/06/22 08:43:16;;;;;;;3.70;2.25;;;22.40;99.90;;;;;;5040823;28;20029;-69
2023/06/22 08:45:41;;;;;;;3.40;2.08;;;22.30;99.90;;;;;;5037066;28;20048;-69
2023/06/22 08:48:07;;;;;;;3.13;2.13;;;22.00;99.90;;;;;;5036913;28;20032;-69
2023/06/22 08:50:32;;;;;;;5.20;2.65;;;21.90;99.90;;;;;;5035055;28;20414;-69
2023/06/22 08:52:58;;;;;;;4.75;2.47;;;21.80;99.90;;;;;;5036641;28;20033;-69
2023/06/22 08:55:24;;;;;;;4.88;2.47;;;21.60;99.90;;;;;;5036333;28;20025;-69
2023/06/22 08:57:49;;;;;;;4.30;2.38;;;21.40;99.90;;;;;;5036402;28;20017;-69
2023/06/22 09:00:17;;;;;;;3.15;2.15;;;21.20;99.90;;;;;;5036731;28;20088;-69
2023/06/22 09:02:43;;;;;;;5.03;2.80;;;21.00;99.90;;;;;;5037484;28;20444;-69
2023/06/22 09:05:09;;;;;;;4.40;2.58;;;20.80;99.90;;;;;;5036256;28;20021;-69
2023/06/22 09:07:35;;;;;;;5.18;3.10;;;20.70;99.90;;;;;;5035732;28;20047;-69
2023/06/22 09:10:01;;;;;;;5.22;2.42;;;20.60;99.90;;;;;;5036210;28;20108;-70
2023/06/22 09:12:27;;;;;;;5.35;2.80;;;20.30;99.90;;;;;;5035516;28;20034;-69
2023/06/22 09:14:53;;;;;;;3.47;2.53;;;20.00;99.90;;;;;;5036207;28;20063;-69
2023/06/22 09:17:19;;;;;;;4.30;2.70;;;19.90;99.90;;;;;;5034785;28;20108;-69
2023/06/22 09:19:44;;;;;;;4.43;2.90;;;19.80;99.90;;;;;;5035388;28;20086;-69
2023/06/22 09:22:10;;;;;;;9.13;3.55;;;19.90;99.90;;;;;;5036282;28;20037;-70
2023/06/22 09:24:36;;;;;;;4.70;3.20;;;20.00;99.90;;;;;;5037464;28;20085;-69
2023/06/22 09:27:01;;;;;;;4.38;2.97;;;20.10;99.90;;;;;;5035997;28;20474;-69
2023/06/22 09:29:27;;;;;;;4.65;3.22;;;20.20;99.90;;;;;;5034729;28;20029;-69
2023/06/22 09:31:55;;;;;;;5.00;2.90;;;20.30;99.90;;;;;;5051355;28;20440;-70
2023/06/22 09:34:21;;;;;;;5.68;3.42;;;20.50;99.90;;;;;;5035805;28;20030;-69
2023/06/22 09:36:47;;;;;;;5.13;3.17;;;20.50;99.90;;;;;;5037842;28;20465;-69
2023/06/22 09:39:13;;;;;;;7.78;2.63;;;20.70;99.90;;;;;;5039438;28;20071;-69
2023/06/22 09:41:38;;;;;;;3.35;2.60;;;20.90;99.90;;;;;;5038773;28;20416;-70
2023/06/22 09:44:04;;;;;;;6.55;2.67;;;20.90;99.90;;;;;;5040314;28;20025;-69
2023/06/22 09:46:30;;;;;;;4.72;2.58;;;21.00;99.90;;;;;;5040349;28;20375;-70
2023/06/22 09:48:55;;;;;;;7.70;3.10;;;21.00;99.90;;;;;;5039693;28;20045;-69
2023/06/22 09:51:23;;;;;;;3.78;2.60;;;21.10;99.90;;;;;;5044882;28;20516;-70
2023/06/22 09:53:50;;;;;;;5.43;3.13;;;21.10;99.90;;;;;;5043677;28;20044;-70
2023/06/22 09:56:16;;;;;;;3.45;2.55;;;21.20;99.90;;;;;;5039458;28;20029;-69
2023/06/22 09:58:52;;;;;;;9.23;2.88;;;21.30;99.90;;;;;;5039272;28;20037;-70
2023/06/22 10:01:18;;;;;;;4.32;2.85;;;21.40;99.90;;;;;;5040294;28;20034;-69
2023/06/22 10:03:43;;;;;;;5.60;2.97;;;21.50;99.90;;;;;;5039771;28;20016;-70
2023/06/22 10:06:09;;;;;;;5.70;3.20;;;21.50;99.90;;;;;;5039738;28;20079;-69
2023/06/22 10:08:36;;;;;;;4.68;2.90;;;21.60;99.90;;;;;;5038935;28;20064;-70
2023/06/22 10:11:02;;;;;;;6.18;2.58;;;21.90;99.90;;;;;;5035230;28;20036;-69
2023/06/22 10:13:28;;;;;;;4.90;2.38;;;22.30;99.90;;;;;;5035271;28;20022;-70
2023/06/22 10:15:54;;;;;;;3.63;2.60;;;22.60;99.90;;;;;;5039798;28;20497;-69
2023/06/22 10:18:20;;;;;;;4.40;2.78;;;22.40;99.90;;;;;;5036460;28;20029;-69
2023/06/22 10:20:52;;;;;;;3.83;2.40;;;22.20;99.90;;;;;;5039195;28;20060;-70
2023/06/22 10:23:22;;;;;;;4.35;2.97;;;22.10;99.90;;;;;;5039501;28;20068;-70
2023/06/22 10:25:48;;;;;;;3.75;2.67;;;22.00;99.90;;;;;;5039176;28;20017;-70
2023/06/22 10:28:14;;;;;;;5.35;3.00;;;21.90;99.90;;;;;;5033773;28;20026;-70
2023/06/22 10:30:44;;;;;;;4.88;2.90;;;22.10;99.90;;;;;;5039699;28;20036;-69
2023/06/22 10:33:11;;;;;;;4.88;2.88;;;22.30;99.90;;;;;;5039155;28;20025;-69
2023/06/22 10:35:40;;;;;;;5.43;2.42;;;22.50;99.90;;;;;;5037856;28;20087;-70
2023/06/22 10:38:06;;;;;;;3.78;2.70;;;22.80;99.90;;;;;;5037555;28;20079;-70
2023/06/22 10:40:32;;;;;;;3.85;2.75;;;23.10;99.90;;;;;;5037820;28;20026;-69
2023/06/22 10:42:58;;;;;;;4.25;2.88;;;23.20;99.90;;;;;;5039225;28;20072;-69
2023/06/22 10:45:23;;;;;;;5.35;2.90;;;23.40;99.90;;;;;;5039148;28;20030;-70
2023/06/22 10:47:49;;;;;;;5.25;2.65;;;23.60;99.90;;;;;;5033430;28;20030;-69
2023/06/22 10:50:15;;;;;;;3.83;3.13;;;24.00;99.90;;;;;;5038747;28;20113;-69
2023/06/22 10:52:43;;;;;;;3.45;2.45;;;24.10;99.90;;;;;;5037621;28;20025;-69
2023/06/22 10:55:09;;;;;;;5.68;2.55;;;24.20;99.90;;;;;;5031351;28;20033;-69
2023/06/22 10:57:36;;;;;;;5.22;2.70;;;24.30;99.90;;;;;;5038643;28;20032;-69
2023/06/22 11:00:05;;;;;;;6.15;2.72;;;24.10;99.90;;;;;;5038823;28;20033;-69
2023/06/22 11:02:31;;;;;;;4.82;3.17;;;24.10;99.90;;;;;;5032448;28;20508;-69
2023/06/22 11:05:00;;;;;;;5.13;2.72;;;24.00;99.90;;;;;;5036191;28;20096;-70
2023/06/22 11:07:27;;;;;;;6.32;2.25;;;23.90;99.90;;;;;;5038350;28;20425;-69
2023/06/22 11:09:53;;;;;;;4.10;3.15;;;23.70;99.90;;;;;;5037664;28;20018;-69
2023/06/22 11:12:18;;;;;;;6.75;3.03;;;23.60;99.90;;;;;;5038456;28;20032;-69
2023/06/22 11:14:44;;;;;;;4.82;2.92;;;23.70;99.90;;;;;;5038720;28;20389;-69
2023/06/22 11:17:10;;;;;;;4.47;3.20;;;23.80;99.90;;;;;;5038410;28;20017;-69
2023/06/22 11:19:36;;;;;;;5.18;2.47;;;23.80;99.90;;;;;;5037513;28;20048;-70
2023/06/22 11:22:02;;;;;;;2.90;2.13;;;23.80;99.90;;;;;;5031624;28;20030;-70
2023/06/22 11:24:27;;;;;;;3.70;2.70;;;23.60;99.90;;;;;;5038739;28;20101;-69
2023/06/22 11:26:53;;;;;;;6.88;2.92;;;23.60;99.90;;;;;;5038266;28;20018;-69
2023/06/22 11:29:19;;;;;;;5.20;3.08;;;23.50;99.90;;;;;;5037894;28;20064;-69
2023/06/22 11:31:44;;;;;;;6.90;2.75;;;23.60;99.90;;;;;;5038369;28;20022;-69
2023/06/22 11:34:10;;;;;;;4.70;3.05;;;24.00;99.90;;;;;;5030337;28;20033;-69
2023/06/22 11:36:36;;;;;;;6.07;2.80;;;24.60;99.90;;;;;;5037614;28;20095;-69
2023/06/22 11:39:02;;;;;;;3.90;2.33;;;24.90;99.90;;;;;;5037527;28;20025;-69
2023/06/22 11:41:28;;;;;;;4.72;2.58;;;25.10;99.90;;;;;;5038071;28;20033;-69
2023/06/22 11:43:53;;;;;;;4.40;2.05;;;25.00;99.90;;;;;;5035599;28;20026;-70
2023/06/22 11:46:19;;;;;;;6.90;3.60;;;24.60;99.90;;;;;;5038109;28;20044;-69
2023/06/22 11:48:45;;;;;;;5.05;3.28;;;24.30;99.90;;;;;;5030961;28;20531;-69
2023/06/22 11:51:11;;;;;;;7.40;3.28;;;24.00;99.90;;;;;;5037007;28;20036;-72
2023/06/22 11:53:36;;;;;;;5.35;3.22;;;23.20;99.90;;;;;;5038016;28;20096;-71
2023/06/22 11:56:02;;;;;;;7.72;3.78;;;22.40;99.90;;;;;;5037777;28;20493;-71
2023/06/22 11:58:28;;;;;;;3.28;2.33;;;22.00;99.90;;;;;;5038282;28;20034;-72
2023/06/22 12:00:54;;;;;;;5.00;3.30;;;21.90;99.90;;;;;;5024408;28;20509;-72
2023/06/22 12:03:21;;;;;;;5.97;3.22;;;22.10;99.90;;;;;;5037822;28;20022;-71
2023/06/22 12:05:47;;;;;;;6.53;3.20;;;22.40;99.90;;;;;;5037724;28;20014;-70
2023/06/22 12:08:13;;;;;;;4.63;2.88;;;22.80;99.90;;;;;;5038242;28;20022;-71
2023/06/22 12:10:39;;;;;;;5.60;2.90;;;23.20;99.90;;;;;;5037692;28;20013;-72
2023/06/22 12:13:05;;;;;;;4.97;2.97;;;23.30;99.90;;;;;;5037889;28;20090;-70
2023/06/22 12:15:30;;;;;;;5.88;2.60;;;23.50;99.90;;;;;;5037807;28;20104;-70
2023/06/22 12:17:56;;;;;;;3.80;2.70;;;23.60;99.90;;;;;;5037774;28;20061;-70
2023/06/22 12:20:22;;;;;;;7.88;3.05;;;23.60;99.90;;;;;;5037453;28;20042;-70
2023/06/22 12:22:48;;;;;;;3.80;2.83;;;23.60;99.90;;;;;;5037708;28;20581;-71
2023/06/22 12:25:13;;;;;;;4.45;2.90;;;23.50;99.90;;;;;;5037626;28;20485;-70
2023/06/22 12:27:39;;;;;;;5.28;3.00;;;23.50;99.90;;;;;;5037658;28;20026;-71
2023/06/22 12:30:05;;;;;;;5.65;2.60;;;23.60;99.90;;;;;;5037660;28;20039;-71
2023/06/22 12:32:31;;;;;;;4.13;2.80;;;23.90;99.90;;;;;;5037603;28;20060;-70
2023/06/22 12:34:57;;;;;;;4.05;2.75;;;24.20;99.90;;;;;;5037388;28;20017;-70
2023/06/22 12:37:23;;;;;;;3.80;2.40;;;24.50;99.90;;;;;;5037454;28;20025;-69
2023/06/22 12:39:49;;;;;;;5.55;2.85;;;24.50;99.90;;;;;;5037540;28;20024;-69
2023/06/22 12:42:15;;;;;;;3.97;2.78;;;24.30;99.90;;;;;;5037215;28;20027;-69